sensor_id;sensor_type;location;lat;lon;timestamp;P1;durP1;ratioP1;P2;durP2;ratioP2
51148;SDS011;37210;50.058;8.688;2023-11-21T00:00:19;2.95;;;2.40;;
51148;SDS011;37210;50.058;8.688;2023-11-21T00:02:47;3.63;;;2.20;;
51148;SDS011;37210;50.058;8.688;2023-11-21T00:05:16;4.50;;;2.80;;
51148;SDS011;37210;50.058;8.688;2023-11-21T00:07:44;5.07;;;2.88;;
51148;SDS011;37210;50.058;8.688;2023-11-21T00:10:11;3.10;;;2.45;;
51148;SDS011;37210;50.058;8.688;2023-11-21T00:12:41;5.88;;;2.95;;
51148;SDS011;37210;50.058;8.688;2023-11-21T00:15:09;2.22;;;2.00;;
51148;SDS011;37210;50.058;8.688;2023-11-21T00:17:39;3.25;;;2.33;;
51148;SDS011;37210;50.058;8.688;2023-11-21T00:20:07;3.22;;;2.65;;
51148;SDS011;37210;50.058;8.688;2023-11-21T00:22:38;2.58;;;2.03;;
51148;SDS011;37210;50.058;8.688;2023-11-21T00:25:06;3.65;;;2.03;;
51148;SDS011;37210;50.058;8.688;2023-11-21T00:27:35;3.10;;;2.20;;
51148;SDS011;37210;50.058;8.688;2023-11-21T00:30:03;4.05;;;2.00;;
51148;SDS011;37210;50.058;8.688;2023-11-21T00:32:35;2.83;;;1.88;;
51148;SDS011;37210;50.058;8.688;2023-11-21T00:35:04;3.22;;;2.30;;
51148;SDS011;37210;50.058;8.688;2023-11-21T00:37:32;4.90;;;2.28;;
51148;SDS011;37210;50.058;8.688;2023-11-21T00:40:00;2.55;;;1.98;;
51148;SDS011;37210;50.058;8.688;2023-11-21T00:42:33;3.55;;;2.10;;
51148;SDS011;37210;50.058;8.688;2023-11-21T00:45:01;2.83;;;2.10;;
51148;SDS011;37210;50.058;8.688;2023-11-21T00:47:29;6.40;;;2.33;;
51148;SDS011;37210;50.058;8.688;2023-11-21T00:50:00;3.50;;;2.22;;
51148;SDS011;37210;50.058;8.688;2023-11-21T00:52:29;2.67;;;2.10;;
51148;SDS011;37210;50.058;8.688;2023-11-21T00:54:57;3.20;;;2.15;;
51148;SDS011;37210;50.058;8.688;2023-11-21T00:57:25;4.30;;;2.30;;
51148;SDS011;37210;50.058;8.688;2023-11-21T00:59:53;3.17;;;2.25;;
51148;SDS011;37210;50.058;8.688;2023-11-21T01:02:21;5.18;;;2.53;;
51148;SDS011;37210;50.058;8.688;2023-11-21T01:04:48;4.07;;;2.50;;
51148;SDS011;37210;50.058;8.688;2023-11-21T01:07:16;2.58;;;1.90;;
51148;SDS011;37210;50.058;8.688;2023-11-21T01:09:47;2.28;;;2.08;;
51148;SDS011;37210;50.058;8.688;2023-11-21T01:12:15;3.72;;;2.40;;
51148;SDS011;37210;50.058;8.688;2023-11-21T01:14:43;2.47;;;2.25;;
51148;SDS011;37210;50.058;8.688;2023-11-21T01:17:11;3.95;;;2.70;;
51148;SDS011;37210;50.058;8.688;2023-11-21T01:19:39;2.80;;;2.40;;
51148;SDS011;37210;50.058;8.688;2023-11-21T01:22:07;3.88;;;2.60;;
51148;SDS011;37210;50.058;8.688;2023-11-21T01:24:35;2.83;;;2.10;;
51148;SDS011;37210;50.058;8.688;2023-11-21T01:27:05;3.92;;;2.50;;
51148;SDS011;37210;50.058;8.688;2023-11-21T01:29:34;3.35;;;2.33;;
51148;SDS011;37210;50.058;8.688;2023-11-21T01:32:02;2.55;;;2.03;;
51148;SDS011;37210;50.058;8.688;2023-11-21T01:34:30;3.90;;;2.70;;
51148;SDS011;37210;50.058;8.688;2023-11-21T01:37:00;5.22;;;2.75;;
51148;SDS011;37210;50.058;8.688;2023-11-21T01:39:31;2.53;;;2.30;;
51148;SDS011;37210;50.058;8.688;2023-11-21T01:41:58;4.13;;;2.58;;
51148;SDS011;37210;50.058;8.688;2023-11-21T01:44:27;3.67;;;2.85;;
51148;SDS011;37210;50.058;8.688;2023-11-21T01:46:55;3.63;;;2.70;;
51148;SDS011;37210;50.058;8.688;2023-11-21T01:49:24;6.32;;;2.67;;
51148;SDS011;37210;50.058;8.688;2023-11-21T01:51:52;5.25;;;3.03;;
51148;SDS011;37210;50.058;8.688;2023-11-21T01:54:19;3.92;;;2.85;;
51148;SDS011;37210;50.058;8.688;2023-11-21T01:56:48;4.93;;;2.90;;
51148;SDS011;37210;50.058;8.688;2023-11-21T01:59:17;4.05;;;2.92;;
51148;SDS011;37210;50.058;8.688;2023-11-21T02:01:49;3.70;;;2.90;;
51148;SDS011;37210;50.058;8.688;2023-11-21T02:06:52;3.08;;;2.58;;
51148;SDS011;37210;50.058;8.688;2023-11-21T02:09:24;4.43;;;2.88;;
51148;SDS011;37210;50.058;8.688;2023-11-21T02:11:53;3.08;;;2.78;;
51148;SDS011;37210;50.058;8.688;2023-11-21T02:14:21;4.63;;;2.60;;
51148;SDS011;37210;50.058;8.688;2023-11-21T02:16:53;3.33;;;2.63;;
51148;SDS011;37210;50.058;8.688;2023-11-21T02:19:23;3.15;;;2.85;;
51148;SDS011;37210;50.058;8.688;2023-11-21T02:21:52;3.50;;;2.92;;
51148;SDS011;37210;50.058;8.688;2023-11-21T02:24:22;4.80;;;3.03;;
51148;SDS011;37210;50.058;8.688;2023-11-21T02:26:50;5.15;;;3.00;;
51148;SDS011;37210;50.058;8.688;2023-11-21T02:29:21;3.00;;;2.70;;
51148;SDS011;37210;50.058;8.688;2023-11-21T02:31:59;5.07;;;2.90;;
51148;SDS011;37210;50.058;8.688;2023-11-21T02:34:27;4.00;;;2.92;;
51148;SDS011;37210;50.058;8.688;2023-11-21T02:36:54;3.38;;;3.05;;
51148;SDS011;37210;50.058;8.688;2023-11-21T02:39:27;3.17;;;2.88;;
51148;SDS011;37210;50.058;8.688;2023-11-21T02:41:54;5.85;;;3.00;;
51148;SDS011;37210;50.058;8.688;2023-11-21T02:44:22;3.47;;;2.58;;
51148;SDS011;37210;50.058;8.688;2023-11-21T02:46:50;3.45;;;2.60;;
51148;SDS011;37210;50.058;8.688;2023-11-21T02:49:17;3.63;;;2.38;;
51148;SDS011;37210;50.058;8.688;2023-11-21T02:51:48;2.95;;;2.65;;
51148;SDS011;37210;50.058;8.688;2023-11-21T02:54:16;3.88;;;2.88;;
51148;SDS011;37210;50.058;8.688;2023-11-21T02:56:45;3.53;;;2.72;;
51148;SDS011;37210;50.058;8.688;2023-11-21T02:59:12;4.93;;;2.67;;
51148;SDS011;37210;50.058;8.688;2023-11-21T03:01:41;3.50;;;2.83;;
51148;SDS011;37210;50.058;8.688;2023-11-21T03:04:09;3.30;;;2.40;;
51148;SDS011;37210;50.058;8.688;2023-11-21T03:06:37;2.42;;;2.22;;
51148;SDS011;37210;50.058;8.688;2023-11-21T03:09:04;3.80;;;2.13;;
51148;SDS011;37210;50.058;8.688;2023-11-21T03:11:34;2.40;;;2.20;;
51148;SDS011;37210;50.058;8.688;2023-11-21T03:14:03;3.08;;;1.83;;
51148;SDS011;37210;50.058;8.688;2023-11-21T03:16:31;2.40;;;2.20;;
51148;SDS011;37210;50.058;8.688;2023-11-21T03:18:59;2.20;;;2.10;;
51148;SDS011;37210;50.058;8.688;2023-11-21T03:21:27;4.43;;;3.05;;
51148;SDS011;37210;50.058;8.688;2023-11-21T03:23:55;2.10;;;1.90;;
51148;SDS011;37210;50.058;8.688;2023-11-21T03:26:23;2.80;;;2.35;;
51148;SDS011;37210;50.058;8.688;2023-11-21T03:28:50;2.90;;;2.58;;
51148;SDS011;37210;50.058;8.688;2023-11-21T03:31:20;3.78;;;2.60;;
51148;SDS011;37210;50.058;8.688;2023-11-21T03:33:49;3.90;;;2.60;;
51148;SDS011;37210;50.058;8.688;2023-11-21T03:36:18;4.57;;;2.30;;
51148;SDS011;37210;50.058;8.688;2023-11-21T03:38:47;3.08;;;2.03;;
51148;SDS011;37210;50.058;8.688;2023-11-21T03:41:16;2.42;;;2.20;;
51148;SDS011;37210;50.058;8.688;2023-11-21T03:43:43;2.40;;;2.20;;
51148;SDS011;37210;50.058;8.688;2023-11-21T03:46:13;2.55;;;1.98;;
51148;SDS011;37210;50.058;8.688;2023-11-21T03:48:43;3.17;;;2.10;;
51148;SDS011;37210;50.058;8.688;2023-11-21T03:51:11;3.00;;;2.40;;
51148;SDS011;37210;50.058;8.688;2023-11-21T03:53:39;2.20;;;2.00;;
51148;SDS011;37210;50.058;8.688;2023-11-21T03:56:09;2.20;;;2.00;;
51148;SDS011;37210;50.058;8.688;2023-11-21T03:58:37;2.45;;;1.95;;
51148;SDS011;37210;50.058;8.688;2023-11-21T04:01:05;1.50;;;1.40;;
51148;SDS011;37210;50.058;8.688;2023-11-21T04:03:33;1.63;;;1.40;;
51148;SDS011;37210;50.058;8.688;2023-11-21T04:06:01;2.50;;;1.60;;
51148;SDS011;37210;50.058;8.688;2023-11-21T04:08:29;1.73;;;1.45;;
51148;SDS011;37210;50.058;8.688;2023-11-21T04:10:57;1.52;;;1.42;;
51148;SDS011;37210;50.058;8.688;2023-11-21T04:13:24;1.80;;;1.40;;
51148;SDS011;37210;50.058;8.688;2023-11-21T04:15:52;2.25;;;1.38;;
51148;SDS011;37210;50.058;8.688;2023-11-21T04:18:19;1.63;;;1.33;;
51148;SDS011;37210;50.058;8.688;2023-11-21T04:20:48;2.13;;;1.60;;
51148;SDS011;37210;50.058;8.688;2023-11-21T04:23:17;1.45;;;1.33;;
51148;SDS011;37210;50.058;8.688;2023-11-21T04:25:45;2.85;;;2.20;;
51148;SDS011;37210;50.058;8.688;2023-11-21T04:28:12;2.13;;;1.88;;
51148;SDS011;37210;50.058;8.688;2023-11-21T04:30:40;2.75;;;1.90;;
51148;SDS011;37210;50.058;8.688;2023-11-21T04:33:07;2.15;;;1.90;;
51148;SDS011;37210;50.058;8.688;2023-11-21T04:35:35;2.10;;;1.88;;
51148;SDS011;37210;50.058;8.688;2023-11-21T04:38:02;2.83;;;1.92;;
51148;SDS011;37210;50.058;8.688;2023-11-21T04:40:31;3.33;;;2.00;;
51148;SDS011;37210;50.058;8.688;2023-11-21T04:42:59;2.08;;;1.80;;
51148;SDS011;37210;50.058;8.688;2023-11-21T04:45:27;3.05;;;1.92;;
51148;SDS011;37210;50.058;8.688;2023-11-21T04:47:54;2.83;;;1.90;;
51148;SDS011;37210;50.058;8.688;2023-11-21T04:50:22;5.70;;;1.83;;
51148;SDS011;37210;50.058;8.688;2023-11-21T04:52:51;1.88;;;1.45;;
51148;SDS011;37210;50.058;8.688;2023-11-21T04:55:19;1.65;;;1.50;;
51148;SDS011;37210;50.058;8.688;2023-11-21T04:57:48;2.50;;;2.00;;
51148;SDS011;37210;50.058;8.688;2023-11-21T05:00:15;1.98;;;1.73;;
51148;SDS011;37210;50.058;8.688;2023-11-21T05:02:44;3.20;;;1.58;;
51148;SDS011;37210;50.058;8.688;2023-11-21T05:05:12;2.67;;;1.83;;
51148;SDS011;37210;50.058;8.688;2023-11-21T05:07:40;1.67;;;1.58;;
51148;SDS011;37210;50.058;8.688;2023-11-21T05:10:08;1.90;;;1.70;;
51148;SDS011;37210;50.058;8.688;2023-11-21T05:12:37;1.98;;;1.88;;
51148;SDS011;37210;50.058;8.688;2023-11-21T05:15:08;2.30;;;2.03;;
51148;SDS011;37210;50.058;8.688;2023-11-21T05:17:36;1.70;;;1.60;;
51148;SDS011;37210;50.058;8.688;2023-11-21T05:20:05;2.03;;;1.80;;
51148;SDS011;37210;50.058;8.688;2023-11-21T05:22:35;3.17;;;1.80;;
51148;SDS011;37210;50.058;8.688;2023-11-21T05:25:05;2.05;;;1.95;;
51148;SDS011;37210;50.058;8.688;2023-11-21T05:27:34;2.90;;;2.22;;
51148;SDS011;37210;50.058;8.688;2023-11-21T05:30:01;2.00;;;1.85;;
51148;SDS011;37210;50.058;8.688;2023-11-21T05:32:33;2.08;;;1.85;;
51148;SDS011;37210;50.058;8.688;2023-11-21T05:35:00;2.28;;;2.13;;
51148;SDS011;37210;50.058;8.688;2023-11-21T05:37:28;2.28;;;2.13;;
51148;SDS011;37210;50.058;8.688;2023-11-21T05:39:56;2.50;;;2.33;;
51148;SDS011;37210;50.058;8.688;2023-11-21T05:42:23;2.72;;;2.50;;
51148;SDS011;37210;50.058;8.688;2023-11-21T05:44:51;3.30;;;2.47;;
51148;SDS011;37210;50.058;8.688;2023-11-21T05:47:18;2.90;;;2.50;;
51148;SDS011;37210;50.058;8.688;2023-11-21T05:49:49;2.83;;;2.40;;
51148;SDS011;37210;50.058;8.688;2023-11-21T05:52:17;2.88;;;2.67;;
51148;SDS011;37210;50.058;8.688;2023-11-21T05:54:46;4.28;;;3.55;;
51148;SDS011;37210;50.058;8.688;2023-11-21T05:57:13;3.53;;;3.20;;
51148;SDS011;37210;50.058;8.688;2023-11-21T05:59:40;3.30;;;3.00;;
51148;SDS011;37210;50.058;8.688;2023-11-21T06:02:08;3.53;;;3.22;;
51148;SDS011;37210;50.058;8.688;2023-11-21T06:04:36;3.88;;;3.58;;
51148;SDS011;37210;50.058;8.688;2023-11-21T06:07:05;3.85;;;3.42;;
51148;SDS011;37210;50.058;8.688;2023-11-21T06:09:33;5.85;;;5.10;;
51148;SDS011;37210;50.058;8.688;2023-11-21T06:12:00;7.28;;;6.15;;
51148;SDS011;37210;50.058;8.688;2023-11-21T06:14:37;8.13;;;6.13;;
51148;SDS011;37210;50.058;8.688;2023-11-21T06:17:05;7.25;;;6.57;;
51148;SDS011;37210;50.058;8.688;2023-11-21T06:19:32;7.60;;;6.60;;
51148;SDS011;37210;50.058;8.688;2023-11-21T06:21:59;8.43;;;6.97;;
51148;SDS011;37210;50.058;8.688;2023-11-21T06:24:28;7.97;;;7.13;;
51148;SDS011;37210;50.058;8.688;2023-11-21T06:26:56;8.23;;;7.43;;
51148;SDS011;37210;50.058;8.688;2023-11-21T06:29:24;7.80;;;7.00;;
51148;SDS011;37210;50.058;8.688;2023-11-21T06:31:52;8.57;;;7.70;;
51148;SDS011;37210;50.058;8.688;2023-11-21T06:34:20;9.07;;;8.10;;
51148;SDS011;37210;50.058;8.688;2023-11-21T06:36:48;9.73;;;7.78;;
51148;SDS011;37210;50.058;8.688;2023-11-21T06:39:16;10.23;;;8.55;;
51148;SDS011;37210;50.058;8.688;2023-11-21T06:41:45;10.85;;;8.50;;
51148;SDS011;37210;50.058;8.688;2023-11-21T06:44:12;11.70;;;8.82;;
51148;SDS011;37210;50.058;8.688;2023-11-21T06:46:40;11.05;;;9.85;;
51148;SDS011;37210;50.058;8.688;2023-11-21T06:49:08;10.00;;;9.00;;
51148;SDS011;37210;50.058;8.688;2023-11-21T06:51:36;11.77;;;9.60;;
51148;SDS011;37210;50.058;8.688;2023-11-21T06:54:05;10.75;;;8.73;;
51148;SDS011;37210;50.058;8.688;2023-11-21T06:56:33;11.10;;;9.82;;
51148;SDS011;37210;50.058;8.688;2023-11-21T06:59:03;13.18;;;9.93;;
51148;SDS011;37210;50.058;8.688;2023-11-21T07:01:32;12.75;;;9.73;;
51148;SDS011;37210;50.058;8.688;2023-11-21T07:04:04;12.07;;;10.15;;
51148;SDS011;37210;50.058;8.688;2023-11-21T07:06:32;10.90;;;7.93;;
51148;SDS011;37210;50.058;8.688;2023-11-21T07:09:00;9.60;;;8.43;;
51148;SDS011;37210;50.058;8.688;2023-11-21T07:11:29;11.48;;;8.10;;
51148;SDS011;37210;50.058;8.688;2023-11-21T07:13:56;8.38;;;7.40;;
51148;SDS011;37210;50.058;8.688;2023-11-21T07:16:25;7.90;;;7.10;;
51148;SDS011;37210;50.058;8.688;2023-11-21T07:18:52;7.85;;;6.25;;
51148;SDS011;37210;50.058;8.688;2023-11-21T07:21:20;7.00;;;6.13;;
51148;SDS011;37210;50.058;8.688;2023-11-21T07:23:48;8.95;;;6.75;;
51148;SDS011;37210;50.058;8.688;2023-11-21T07:26:15;7.43;;;5.97;;
51148;SDS011;37210;50.058;8.688;2023-11-21T07:28:43;7.47;;;6.18;;
51148;SDS011;37210;50.058;8.688;2023-11-21T07:31:10;7.13;;;6.00;;
51148;SDS011;37210;50.058;8.688;2023-11-21T07:33:39;6.38;;;5.78;;
51148;SDS011;37210;50.058;8.688;2023-11-21T07:36:07;10.98;;;6.57;;
51148;SDS011;37210;50.058;8.688;2023-11-21T07:38:36;6.45;;;5.85;;
51148;SDS011;37210;50.058;8.688;2023-11-21T07:41:04;6.93;;;5.95;;
51148;SDS011;37210;50.058;8.688;2023-11-21T07:43:33;7.30;;;6.15;;
51148;SDS011;37210;50.058;8.688;2023-11-21T07:46:02;6.07;;;5.35;;
51148;SDS011;37210;50.058;8.688;2023-11-21T07:48:29;8.57;;;6.30;;
51148;SDS011;37210;50.058;8.688;2023-11-21T07:50:58;6.28;;;5.55;;
51148;SDS011;37210;50.058;8.688;2023-11-21T07:53:27;6.68;;;5.60;;
51148;SDS011;37210;50.058;8.688;2023-11-21T07:55:55;6.90;;;5.18;;
51148;SDS011;37210;50.058;8.688;2023-11-21T07:58:23;6.57;;;5.90;;
51148;SDS011;37210;50.058;8.688;2023-11-21T08:00:51;8.75;;;5.65;;
51148;SDS011;37210;50.058;8.688;2023-11-21T08:03:18;7.03;;;5.93;;
51148;SDS011;37210;50.058;8.688;2023-11-21T08:05:46;6.22;;;5.57;;
51148;SDS011;37210;50.058;8.688;2023-11-21T08:08:15;6.18;;;5.57;;
51148;SDS011;37210;50.058;8.688;2023-11-21T08:10:44;5.78;;;4.85;;
51148;SDS011;37210;50.058;8.688;2023-11-21T08:13:22;7.47;;;6.05;;
51148;SDS011;37210;50.058;8.688;2023-11-21T08:15:50;7.10;;;5.55;;
51148;SDS011;37210;50.058;8.688;2023-11-21T08:18:20;6.75;;;5.45;;
51148;SDS011;37210;50.058;8.688;2023-11-21T08:20:48;8.77;;;6.00;;
51148;SDS011;37210;50.058;8.688;2023-11-21T08:23:16;6.97;;;5.75;;
51148;SDS011;37210;50.058;8.688;2023-11-21T08:25:44;7.82;;;5.95;;
51148;SDS011;37210;50.058;8.688;2023-11-21T08:28:12;6.50;;;5.90;;
51148;SDS011;37210;50.058;8.688;2023-11-21T08:30:42;6.65;;;6.00;;
51148;SDS011;37210;50.058;8.688;2023-11-21T08:33:09;7.10;;;5.78;;
51148;SDS011;37210;50.058;8.688;2023-11-21T08:35:38;6.50;;;5.75;;
51148;SDS011;37210;50.058;8.688;2023-11-21T08:38:05;6.80;;;6.07;;
51148;SDS011;37210;50.058;8.688;2023-11-21T08:40:34;6.38;;;5.68;;
51148;SDS011;37210;50.058;8.688;2023-11-21T08:43:02;7.15;;;6.45;;
51148;SDS011;37210;50.058;8.688;2023-11-21T08:45:30;7.85;;;6.75;;
51148;SDS011;37210;50.058;8.688;2023-11-21T08:48:00;7.47;;;6.65;;
51148;SDS011;37210;50.058;8.688;2023-11-21T08:50:27;8.40;;;6.80;;
51148;SDS011;37210;50.058;8.688;2023-11-21T08:52:55;7.45;;;6.38;;
51148;SDS011;37210;50.058;8.688;2023-11-21T08:55:22;7.95;;;6.75;;
51148;SDS011;37210;50.058;8.688;2023-11-21T08:57:51;8.48;;;6.20;;
51148;SDS011;37210;50.058;8.688;2023-11-21T09:00:19;7.53;;;6.78;;
51148;SDS011;37210;50.058;8.688;2023-11-21T09:02:47;8.40;;;7.50;;
51148;SDS011;37210;50.058;8.688;2023-11-21T09:05:15;8.77;;;7.32;;
51148;SDS011;37210;50.058;8.688;2023-11-21T09:07:43;8.95;;;7.05;;
51148;SDS011;37210;50.058;8.688;2023-11-21T09:10:13;14.30;;;11.50;;
51148;SDS011;37210;50.058;8.688;2023-11-21T09:12:40;10.30;;;8.43;;
51148;SDS011;37210;50.058;8.688;2023-11-21T09:15:10;8.60;;;7.80;;
51148;SDS011;37210;50.058;8.688;2023-11-21T09:17:38;7.82;;;6.82;;
51148;SDS011;37210;50.058;8.688;2023-11-21T09:20:06;10.25;;;8.20;;
51148;SDS011;37210;50.058;8.688;2023-11-21T09:22:35;13.15;;;9.98;;
51148;SDS011;37210;50.058;8.688;2023-11-21T09:25:03;10.57;;;7.85;;
51148;SDS011;37210;50.058;8.688;2023-11-21T09:27:33;18.65;;;14.40;;
51148;SDS011;37210;50.058;8.688;2023-11-21T09:30:01;9.02;;;8.13;;
51148;SDS011;37210;50.058;8.688;2023-11-21T09:32:32;8.38;;;6.88;;
51148;SDS011;37210;50.058;8.688;2023-11-21T09:35:00;7.88;;;7.07;;
51148;SDS011;37210;50.058;8.688;2023-11-21T09:37:29;10.82;;;8.50;;
51148;SDS011;37210;50.058;8.688;2023-11-21T09:39:57;7.60;;;6.43;;
51148;SDS011;37210;50.058;8.688;2023-11-21T09:42:25;7.28;;;5.90;;
51148;SDS011;37210;50.058;8.688;2023-11-21T09:45:01;9.07;;;6.05;;
51148;SDS011;37210;50.058;8.688;2023-11-21T09:47:38;7.57;;;5.88;;
51148;SDS011;37210;50.058;8.688;2023-11-21T09:50:06;7.88;;;5.85;;
51148;SDS011;37210;50.058;8.688;2023-11-21T09:52:38;6.57;;;5.97;;
51148;SDS011;37210;50.058;8.688;2023-11-21T09:55:16;7.95;;;5.75;;
51148;SDS011;37210;50.058;8.688;2023-11-21T09:57:47;7.32;;;6.47;;
51148;SDS011;37210;50.058;8.688;2023-11-21T10:00:16;8.95;;;5.75;;
51148;SDS011;37210;50.058;8.688;2023-11-21T10:02:47;8.10;;;5.78;;
51148;SDS011;37210;50.058;8.688;2023-11-21T10:05:16;9.98;;;5.68;;
51148;SDS011;37210;50.058;8.688;2023-11-21T10:07:48;6.57;;;5.75;;
51148;SDS011;37210;50.058;8.688;2023-11-21T10:10:18;6.50;;;5.70;;
51148;SDS011;37210;50.058;8.688;2023-11-21T10:12:49;9.07;;;6.25;;
51148;SDS011;37210;50.058;8.688;2023-11-21T10:15:21;7.18;;;6.22;;
51148;SDS011;37210;50.058;8.688;2023-11-21T10:17:52;7.50;;;6.00;;
51148;SDS011;37210;50.058;8.688;2023-11-21T10:20:22;7.68;;;5.32;;
51148;SDS011;37210;50.058;8.688;2023-11-21T10:22:51;5.85;;;5.25;;
51148;SDS011;37210;50.058;8.688;2023-11-21T10:25:19;7.88;;;5.55;;
51148;SDS011;37210;50.058;8.688;2023-11-21T10:27:47;6.63;;;5.88;;
51148;SDS011;37210;50.058;8.688;2023-11-21T10:30:17;6.97;;;6.22;;
51148;SDS011;37210;50.058;8.688;2023-11-21T10:32:46;7.28;;;6.20;;
51148;SDS011;37210;50.058;8.688;2023-11-21T10:35:15;7.10;;;5.60;;
51148;SDS011;37210;50.058;8.688;2023-11-21T10:37:43;6.45;;;4.80;;
51148;SDS011;37210;50.058;8.688;2023-11-21T10:40:11;5.70;;;4.85;;
51148;SDS011;37210;50.058;8.688;2023-11-21T10:42:39;8.13;;;5.30;;
51148;SDS011;37210;50.058;8.688;2023-11-21T10:45:08;5.82;;;5.22;;
51148;SDS011;37210;50.058;8.688;2023-11-21T10:47:39;5.65;;;5.00;;
51148;SDS011;37210;50.058;8.688;2023-11-21T10:50:09;6.05;;;5.55;;
51148;SDS011;37210;50.058;8.688;2023-11-21T10:52:40;6.22;;;4.63;;
51148;SDS011;37210;50.058;8.688;2023-11-21T10:55:18;6.63;;;5.07;;
51148;SDS011;37210;50.058;8.688;2023-11-21T10:57:48;9.60;;;5.28;;
51148;SDS011;37210;50.058;8.688;2023-11-21T11:00:23;5.80;;;4.85;;
51148;SDS011;37210;50.058;8.688;2023-11-21T11:02:53;7.80;;;5.97;;
51148;SDS011;37210;50.058;8.688;2023-11-21T11:05:22;4.88;;;4.25;;
51148;SDS011;37210;50.058;8.688;2023-11-21T11:07:55;8.25;;;4.68;;
51148;SDS011;37210;50.058;8.688;2023-11-21T11:10:27;9.35;;;4.95;;
51148;SDS011;37210;50.058;8.688;2023-11-21T11:12:56;4.95;;;4.20;;
51148;SDS011;37210;50.058;8.688;2023-11-21T11:15:26;6.50;;;4.05;;
51148;SDS011;37210;50.058;8.688;2023-11-21T11:17:55;5.95;;;4.93;;
51148;SDS011;37210;50.058;8.688;2023-11-21T11:20:24;7.40;;;4.68;;
51148;SDS011;37210;50.058;8.688;2023-11-21T11:23:08;5.78;;;4.97;;
51148;SDS011;37210;50.058;8.688;2023-11-21T11:26:01;7.78;;;4.95;;
51148;SDS011;37210;50.058;8.688;2023-11-21T11:28:44;6.90;;;4.97;;
51148;SDS011;37210;50.058;8.688;2023-11-21T11:31:25;8.25;;;5.38;;
51148;SDS011;37210;50.058;8.688;2023-11-21T11:34:07;7.88;;;5.63;;
51148;SDS011;37210;50.058;8.688;2023-11-21T11:36:58;6.78;;;5.30;;
51148;SDS011;37210;50.058;8.688;2023-11-21T11:39:34;5.70;;;5.20;;
51148;SDS011;37210;50.058;8.688;2023-11-21T11:42:06;5.40;;;4.45;;
51148;SDS011;37210;50.058;8.688;2023-11-21T11:44:51;5.80;;;4.38;;
51148;SDS011;37210;50.058;8.688;2023-11-21T11:47:21;7.50;;;5.00;;
51148;SDS011;37210;50.058;8.688;2023-11-21T11:49:57;7.70;;;5.20;;
51148;SDS011;37210;50.058;8.688;2023-11-21T11:52:33;9.50;;;5.38;;
51148;SDS011;37210;50.058;8.688;2023-11-21T11:55:13;6.32;;;5.13;;
51148;SDS011;37210;50.058;8.688;2023-11-21T11:57:45;5.72;;;5.20;;
51148;SDS011;37210;50.058;8.688;2023-11-21T12:00:15;6.80;;;5.03;;
51148;SDS011;37210;50.058;8.688;2023-11-21T12:02:46;6.90;;;5.20;;
51148;SDS011;37210;50.058;8.688;2023-11-21T12:05:16;8.27;;;5.60;;
51148;SDS011;37210;50.058;8.688;2023-11-21T12:07:47;6.47;;;5.07;;
51148;SDS011;37210;50.058;8.688;2023-11-21T12:10:20;5.97;;;5.13;;
51148;SDS011;37210;50.058;8.688;2023-11-21T12:12:51;5.45;;;4.40;;
51148;SDS011;37210;50.058;8.688;2023-11-21T12:15:20;8.32;;;4.97;;
51148;SDS011;37210;50.058;8.688;2023-11-21T12:17:49;6.13;;;4.30;;
51148;SDS011;37210;50.058;8.688;2023-11-21T12:20:26;5.47;;;4.90;;
51148;SDS011;37210;50.058;8.688;2023-11-21T12:22:56;6.50;;;5.05;;
51148;SDS011;37210;50.058;8.688;2023-11-21T12:25:27;6.82;;;5.43;;
51148;SDS011;37210;50.058;8.688;2023-11-21T12:27:58;7.65;;;4.45;;
51148;SDS011;37210;50.058;8.688;2023-11-21T12:30:27;6.13;;;5.53;;
51148;SDS011;37210;50.058;8.688;2023-11-21T12:32:58;7.05;;;5.30;;
51148;SDS011;37210;50.058;8.688;2023-11-21T12:35:28;7.38;;;5.10;;
51148;SDS011;37210;50.058;8.688;2023-11-21T12:38:00;6.72;;;5.45;;
51148;SDS011;37210;50.058;8.688;2023-11-21T12:40:31;6.63;;;4.93;;
51148;SDS011;37210;50.058;8.688;2023-11-21T12:42:59;5.25;;;4.63;;
51148;SDS011;37210;50.058;8.688;2023-11-21T12:45:30;6.30;;;5.30;;
51148;SDS011;37210;50.058;8.688;2023-11-21T12:47:59;6.40;;;4.97;;
51148;SDS011;37210;50.058;8.688;2023-11-21T12:50:33;7.38;;;5.38;;
51148;SDS011;37210;50.058;8.688;2023-11-21T12:53:04;9.07;;;7.20;;
51148;SDS011;37210;50.058;8.688;2023-11-21T12:55:35;21.83;;;19.23;;
51148;SDS011;37210;50.058;8.688;2023-11-21T12:58:04;27.75;;;22.27;;
51148;SDS011;37210;50.058;8.688;2023-11-21T13:00:36;12.75;;;11.40;;
51148;SDS011;37210;50.058;8.688;2023-11-21T13:03:08;6.95;;;5.65;;
51148;SDS011;37210;50.058;8.688;2023-11-21T13:05:39;6.80;;;5.07;;
51148;SDS011;37210;50.058;8.688;2023-11-21T13:08:11;5.95;;;4.75;;
51148;SDS011;37210;50.058;8.688;2023-11-21T13:10:46;6.88;;;4.68;;
51148;SDS011;37210;50.058;8.688;2023-11-21T13:13:18;7.53;;;4.97;;
51148;SDS011;37210;50.058;8.688;2023-11-21T13:15:49;5.35;;;4.70;;
51148;SDS011;37210;50.058;8.688;2023-11-21T13:18:21;6.28;;;4.47;;
51148;SDS011;37210;50.058;8.688;2023-11-21T13:20:50;6.25;;;4.55;;
51148;SDS011;37210;50.058;8.688;2023-11-21T13:23:21;6.72;;;4.20;;
51148;SDS011;37210;50.058;8.688;2023-11-21T13:25:51;4.80;;;4.28;;
51148;SDS011;37210;50.058;8.688;2023-11-21T13:28:22;5.38;;;4.70;;
51148;SDS011;37210;50.058;8.688;2023-11-21T13:30:52;6.25;;;4.72;;
51148;SDS011;37210;50.058;8.688;2023-11-21T13:33:20;5.28;;;4.78;;
51148;SDS011;37210;50.058;8.688;2023-11-21T13:35:53;7.20;;;4.50;;
51148;SDS011;37210;50.058;8.688;2023-11-21T13:38:22;5.25;;;4.30;;
51148;SDS011;37210;50.058;8.688;2023-11-21T13:40:52;5.32;;;4.20;;
51148;SDS011;37210;50.058;8.688;2023-11-21T13:43:20;5.45;;;4.25;;
51148;SDS011;37210;50.058;8.688;2023-11-21T13:45:52;4.90;;;4.40;;
51148;SDS011;37210;50.058;8.688;2023-11-21T13:48:25;6.47;;;4.32;;
51148;SDS011;37210;50.058;8.688;2023-11-21T13:51:00;5.40;;;3.85;;
51148;SDS011;37210;50.058;8.688;2023-11-21T13:53:43;7.18;;;4.57;;
51148;SDS011;37210;50.058;8.688;2023-11-21T13:56:15;5.18;;;4.40;;
51148;SDS011;37210;50.058;8.688;2023-11-21T13:58:49;4.82;;;4.18;;
51148;SDS011;37210;50.058;8.688;2023-11-21T14:01:18;6.68;;;4.57;;
51148;SDS011;37210;50.058;8.688;2023-11-21T14:04:10;6.68;;;4.50;;
51148;SDS011;37210;50.058;8.688;2023-11-21T14:06:45;5.28;;;4.50;;
51148;SDS011;37210;50.058;8.688;2023-11-21T14:09:15;6.60;;;4.07;;
51148;SDS011;37210;50.058;8.688;2023-11-21T14:11:50;6.18;;;4.30;;
51148;SDS011;37210;50.058;8.688;2023-11-21T14:14:19;4.63;;;4.18;;
51148;SDS011;37210;50.058;8.688;2023-11-21T14:16:48;5.75;;;3.90;;
51148;SDS011;37210;50.058;8.688;2023-11-21T14:19:16;4.72;;;3.60;;
51148;SDS011;37210;50.058;8.688;2023-11-21T14:21:44;5.32;;;4.18;;
51148;SDS011;37210;50.058;8.688;2023-11-21T14:24:12;4.78;;;3.72;;
51148;SDS011;37210;50.058;8.688;2023-11-21T14:26:41;5.53;;;4.00;;
51148;SDS011;37210;50.058;8.688;2023-11-21T14:29:13;6.82;;;4.13;;
51148;SDS011;37210;50.058;8.688;2023-11-21T14:31:45;6.80;;;4.15;;
51148;SDS011;37210;50.058;8.688;2023-11-21T14:34:13;5.50;;;4.20;;
51148;SDS011;37210;50.058;8.688;2023-11-21T14:36:41;5.78;;;3.85;;
51148;SDS011;37210;50.058;8.688;2023-11-21T14:39:09;6.20;;;4.57;;
51148;SDS011;37210;50.058;8.688;2023-11-21T14:41:48;4.95;;;4.18;;
51148;SDS011;37210;50.058;8.688;2023-11-21T14:44:18;4.70;;;3.90;;
51148;SDS011;37210;50.058;8.688;2023-11-21T14:46:46;6.65;;;4.28;;
51148;SDS011;37210;50.058;8.688;2023-11-21T14:49:16;5.60;;;4.53;;
51148;SDS011;37210;50.058;8.688;2023-11-21T14:51:46;6.35;;;4.40;;
51148;SDS011;37210;50.058;8.688;2023-11-21T14:54:26;7.38;;;5.40;;
51148;SDS011;37210;50.058;8.688;2023-11-21T14:57:06;7.38;;;4.63;;
51148;SDS011;37210;50.058;8.688;2023-11-21T14:59:42;5.53;;;5.00;;
51148;SDS011;37210;50.058;8.688;2023-11-21T15:02:13;6.78;;;5.25;;